sensor_id;sensor_type;location;lat;lon;timestamp;pressure;altitude;pressure_sealevel;temperature;humidity
18569;BME280;14780;48.316;-1.050;2023-02-08T00:00:51;100875.78;;;23.89;31.06
18569;BME280;14780;48.316;-1.050;2023-02-08T00:03:36;100884.59;;;23.91;30.98
18569;BME280;14780;48.316;-1.050;2023-02-08T00:06:21;100881.63;;;23.93;31.02
18569;BME280;14780;48.316;-1.050;2023-02-08T00:09:05;100885.59;;;23.97;31.12
18569;BME280;14780;48.316;-1.050;2023-02-08T00:11:50;100887.47;;;23.96;30.97
18569;BME280;14780;48.316;-1.050;2023-02-08T00:14:36;100886.66;;;23.96;30.93
18569;BME280;14780;48.316;-1.050;2023-02-08T00:17:21;100884.97;;;23.95;30.99
18569;BME280;14780;48.316;-1.050;2023-02-08T00:20:05;100880.94;;;23.97;30.96
18569;BME280;14780;48.316;-1.050;2023-02-08T00:22:50;100874.03;;;23.95;30.94
18569;BME280;14780;48.316;-1.050;2023-02-08T00:25:35;100884.53;;;23.98;31.03
18569;BME280;14780;48.316;-1.050;2023-02-08T00:28:20;100889.97;;;23.98;31.00
18569;BME280;14780;48.316;-1.050;2023-02-08T00:31:05;100888.69;;;24.00;30.92
18569;BME280;14780;48.316;-1.050;2023-02-08T00:33:50;100880.13;;;23.97;30.76
18569;BME280;14780;48.316;-1.050;2023-02-08T00:36:34;100881.56;;;23.99;30.83
18569;BME280;14780;48.316;-1.050;2023-02-08T00:39:19;100882.38;;;24.00;30.84
18569;BME280;14780;48.316;-1.050;2023-02-08T00:42:04;100888.06;;;23.98;30.85
18569;BME280;14780;48.316;-1.050;2023-02-08T00:44:49;100884.75;;;23.96;30.83
18569;BME280;14780;48.316;-1.050;2023-02-08T00:47:34;100887.03;;;23.99;30.86
18569;BME280;14780;48.316;-1.050;2023-02-08T00:50:18;100882.00;;;23.96;30.92
18569;BME280;14780;48.316;-1.050;2023-02-08T00:53:03;100876.53;;;23.96;30.84
18569;BME280;14780;48.316;-1.050;2023-02-08T00:55:54;100872.34;;;23.94;30.87
18569;BME280;14780;48.316;-1.050;2023-02-08T00:58:41;100868.56;;;23.95;30.80
18569;BME280;14780;48.316;-1.050;2023-02-08T01:01:26;100866.06;;;23.93;30.83
18569;BME280;14780;48.316;-1.050;2023-02-08T01:04:11;100873.22;;;23.94;30.86
18569;BME280;14780;48.316;-1.050;2023-02-08T01:06:56;100862.72;;;23.91;30.81
18569;BME280;14780;48.316;-1.050;2023-02-08T01:09:40;100874.03;;;23.95;30.80
18569;BME280;14780;48.316;-1.050;2023-02-08T01:12:25;100868.19;;;23.91;30.87
18569;BME280;14780;48.316;-1.050;2023-02-08T01:15:10;100861.28;;;23.89;30.73
18569;BME280;14780;48.316;-1.050;2023-02-08T01:17:55;100865.69;;;23.90;30.88
18569;BME280;14780;48.316;-1.050;2023-02-08T01:20:40;100860.44;;;23.88;30.73
18569;BME280;14780;48.316;-1.050;2023-02-08T01:23:25;100865.31;;;23.86;30.76
18569;BME280;14780;48.316;-1.050;2023-02-08T01:26:11;100852.69;;;23.85;30.69
18569;BME280;14780;48.316;-1.050;2023-02-08T01:28:56;100860.25;;;23.83;30.78
18569;BME280;14780;48.316;-1.050;2023-02-08T01:31:42;100862.41;;;23.81;30.82
18569;BME280;14780;48.316;-1.050;2023-02-08T01:34:27;100864.16;;;23.76;30.82
18569;BME280;14780;48.316;-1.050;2023-02-08T01:37:12;100860.13;;;23.78;30.75
18569;BME280;14780;48.316;-1.050;2023-02-08T01:39:56;100864.75;;;23.78;30.80
18569;BME280;14780;48.316;-1.050;2023-02-08T01:42:41;100865.22;;;23.75;30.80
18569;BME280;14780;48.316;-1.050;2023-02-08T01:45:30;100867.72;;;23.76;30.75
18569;BME280;14780;48.316;-1.050;2023-02-08T01:48:26;100864.59;;;23.73;30.81
18569;BME280;14780;48.316;-1.050;2023-02-08T01:51:19;100860.19;;;23.72;30.81
18569;BME280;14780;48.316;-1.050;2023-02-08T01:54:09;100856.41;;;23.73;30.76
18569;BME280;14780;48.316;-1.050;2023-02-08T01:56:54;100856.28;;;23.68;30.87
18569;BME280;14780;48.316;-1.050;2023-02-08T01:59:45;100861.50;;;23.69;30.79
18569;BME280;14780;48.316;-1.050;2023-02-08T02:02:31;100853.75;;;23.66;30.73
18569;BME280;14780;48.316;-1.050;2023-02-08T02:05:21;100846.63;;;23.65;30.67
18569;BME280;14780;48.316;-1.050;2023-02-08T02:08:07;100852.53;;;23.62;30.70
18569;BME280;14780;48.316;-1.050;2023-02-08T02:10:53;100840.78;;;23.62;30.79
18569;BME280;14780;48.316;-1.050;2023-02-08T02:13:37;100841.00;;;23.60;30.72
18569;BME280;14780;48.316;-1.050;2023-02-08T02:16:22;100839.56;;;23.58;30.67
18569;BME280;14780;48.316;-1.050;2023-02-08T02:19:26;100839.56;;;23.58;30.75
18569;BME280;14780;48.316;-1.050;2023-02-08T02:34:38;100828.25;;;23.54;30.82
18569;BME280;14780;48.316;-1.050;2023-02-08T02:37:54;100824.91;;;23.52;30.80
18569;BME280;14780;48.316;-1.050;2023-02-08T02:43:53;100820.75;;;23.50;30.79
18569;BME280;14780;48.316;-1.050;2023-02-08T02:46:45;100807.09;;;23.50;30.84
18569;BME280;14780;48.316;-1.050;2023-02-08T02:49:45;100802.31;;;23.45;30.90
18569;BME280;14780;48.316;-1.050;2023-02-08T02:52:38;100800.88;;;23.43;30.91
18569;BME280;14780;48.316;-1.050;2023-02-08T02:55:28;100789.50;;;23.46;30.86
18569;BME280;14780;48.316;-1.050;2023-02-08T02:58:15;100791.38;;;23.45;30.83
18569;BME280;14780;48.316;-1.050;2023-02-08T03:01:01;100791.00;;;23.42;30.81
18569;BME280;14780;48.316;-1.050;2023-02-08T03:03:45;100801.50;;;23.45;30.80
18569;BME280;14780;48.316;-1.050;2023-02-08T03:19:18;100767.56;;;23.35;30.88
18569;BME280;14780;48.316;-1.050;2023-02-08T03:22:14;100770.91;;;23.37;30.87
18569;BME280;14780;48.316;-1.050;2023-02-08T03:25:11;100776.81;;;23.33;30.86
18569;BME280;14780;48.316;-1.050;2023-02-08T03:28:34;100776.59;;;23.35;30.84
18569;BME280;14780;48.316;-1.050;2023-02-08T03:31:25;100768.88;;;23.32;30.88
18569;BME280;14780;48.316;-1.050;2023-02-08T03:34:24;100774.06;;;23.33;30.80
18569;BME280;14780;48.316;-1.050;2023-02-08T03:37:43;100769.09;;;23.31;30.86
18569;BME280;14780;48.316;-1.050;2023-02-08T03:40:31;100765.13;;;23.27;30.95
18569;BME280;14780;48.316;-1.050;2023-02-08T03:46:31;100754.84;;;23.29;30.90
18569;BME280;14780;48.316;-1.050;2023-02-08T03:49:21;100763.03;;;23.29;30.87
18569;BME280;14780;48.316;-1.050;2023-02-08T03:52:09;100753.59;;;23.25;30.83
18569;BME280;14780;48.316;-1.050;2023-02-08T03:54:59;100761.38;;;23.28;30.90
18569;BME280;14780;48.316;-1.050;2023-02-08T03:57:52;100764.09;;;23.28;30.85
18569;BME280;14780;48.316;-1.050;2023-02-08T04:00:41;100759.91;;;23.25;30.86
18569;BME280;14780;48.316;-1.050;2023-02-08T04:03:29;100758.84;;;23.26;30.89
18569;BME280;14780;48.316;-1.050;2023-02-08T04:06:14;100758.47;;;23.23;30.94
18569;BME280;14780;48.316;-1.050;2023-02-08T04:08:59;100759.28;;;23.23;30.95
18569;BME280;14780;48.316;-1.050;2023-02-08T04:11:44;100759.53;;;23.22;30.93
18569;BME280;14780;48.316;-1.050;2023-02-08T04:14:29;100758.91;;;23.20;30.88
18569;BME280;14780;48.316;-1.050;2023-02-08T04:17:14;100764.38;;;23.20;30.92
18569;BME280;14780;48.316;-1.050;2023-02-08T04:19:59;100756.19;;;23.20;30.83
18569;BME280;14780;48.316;-1.050;2023-02-08T04:22:44;100760.22;;;23.17;30.95
18569;BME280;14780;48.316;-1.050;2023-02-08T04:25:29;100761.47;;;23.15;30.89
18569;BME280;14780;48.316;-1.050;2023-02-08T04:28:13;100755.84;;;23.16;30.90
18569;BME280;14780;48.316;-1.050;2023-02-08T04:30:58;100756.22;;;23.13;30.91
18569;BME280;14780;48.316;-1.050;2023-02-08T04:33:43;100755.41;;;23.13;30.94
18569;BME280;14780;48.316;-1.050;2023-02-08T04:36:27;100748.50;;;23.10;30.88
18569;BME280;14780;48.316;-1.050;2023-02-08T04:39:12;100747.66;;;23.10;31.00
18569;BME280;14780;48.316;-1.050;2023-02-08T04:41:57;100743.88;;;23.11;30.99
18569;BME280;14780;48.316;-1.050;2023-02-08T04:44:41;100749.78;;;23.08;30.99
18569;BME280;14780;48.316;-1.050;2023-02-08T04:47:26;100747.06;;;23.08;30.89
18569;BME280;14780;48.316;-1.050;2023-02-08T04:50:11;100738.88;;;23.08;30.96
18569;BME280;14780;48.316;-1.050;2023-02-08T04:52:56;100732.81;;;23.06;30.94
18569;BME280;14780;48.316;-1.050;2023-02-08T04:55:40;100730.09;;;23.06;30.92
18569;BME280;14780;48.316;-1.050;2023-02-08T04:58:25;100724.84;;;23.04;30.86
18569;BME280;14780;48.316;-1.050;2023-02-08T05:01:09;100722.34;;;23.03;30.96
18569;BME280;14780;48.316;-1.050;2023-02-08T05:03:55;100721.72;;;23.01;30.91
18569;BME280;14780;48.316;-1.050;2023-02-08T05:06:39;100717.34;;;23.00;30.99
18569;BME280;14780;48.316;-1.050;2023-02-08T05:09:24;100715.69;;;22.99;30.93
18569;BME280;14780;48.316;-1.050;2023-02-08T05:12:09;100710.22;;;22.99;31.01
18569;BME280;14780;48.316;-1.050;2023-02-08T05:14:53;100718.84;;;22.96;30.98
18569;BME280;14780;48.316;-1.050;2023-02-08T05:17:38;100715.69;;;22.99;30.96
18569;BME280;14780;48.316;-1.050;2023-02-08T05:20:22;100720.50;;;22.97;30.90
18569;BME280;14780;48.316;-1.050;2023-02-08T05:23:07;100722.16;;;22.98;30.96
18569;BME280;14780;48.316;-1.050;2023-02-08T05:25:52;100716.72;;;22.98;30.91
18569;BME280;14780;48.316;-1.050;2023-02-08T05:28:37;100718.84;;;22.96;31.03
18569;BME280;14780;48.316;-1.050;2023-02-08T05:31:24;100712.31;;;22.97;30.94
18569;BME280;14780;48.316;-1.050;2023-02-08T05:34:09;100707.09;;;22.95;31.02
18569;BME280;14780;48.316;-1.050;2023-02-08T05:36:54;100704.59;;;22.94;31.08
18569;BME280;14780;48.316;-1.050;2023-02-08T05:39:39;100710.66;;;22.96;31.06
18569;BME280;14780;48.316;-1.050;2023-02-08T05:42:23;100717.19;;;22.95;31.00
18569;BME280;14780;48.316;-1.050;2023-02-08T05:45:09;100711.13;;;22.93;31.00
18569;BME280;14780;48.316;-1.050;2023-02-08T05:47:53;100717.19;;;22.95;30.93
18569;BME280;14780;48.316;-1.050;2023-02-08T05:50:38;100715.94;;;22.91;30.98
18569;BME280;14780;48.316;-1.050;2023-02-08T05:53:23;100723.09;;;22.92;31.06
18569;BME280;14780;48.316;-1.050;2023-02-08T05:56:07;100718.47;;;22.92;30.97
18569;BME280;14780;48.316;-1.050;2023-02-08T05:58:52;100724.78;;;22.93;31.02
18569;BME280;14780;48.316;-1.050;2023-02-08T06:01:36;100722.25;;;22.91;31.03
18569;BME280;14780;48.316;-1.050;2023-02-08T06:04:21;100725.84;;;22.92;30.97
18569;BME280;14780;48.316;-1.050;2023-02-08T06:07:06;100724.13;;;22.91;31.06
18569;BME280;14780;48.316;-1.050;2023-02-08T06:09:51;100725.22;;;22.90;31.03
18569;BME280;14780;48.316;-1.050;2023-02-08T06:12:35;100730.91;;;22.88;31.06
18569;BME280;14780;48.316;-1.050;2023-02-08T06:15:20;100724.81;;;22.86;31.05
18569;BME280;14780;48.316;-1.050;2023-02-08T06:18:05;100721.03;;;22.87;30.98
18569;BME280;14780;48.316;-1.050;2023-02-08T06:20:52;100722.94;;;22.87;31.01
18569;BME280;14780;48.316;-1.050;2023-02-08T06:23:38;100728.19;;;22.88;31.03
18569;BME280;14780;48.316;-1.050;2023-02-08T06:26:23;100714.75;;;22.87;31.07
18569;BME280;14780;48.316;-1.050;2023-02-08T06:29:07;100725.22;;;22.90;31.02
18569;BME280;14780;48.316;-1.050;2023-02-08T06:31:52;100714.75;;;22.87;30.99
18569;BME280;14780;48.316;-1.050;2023-02-08T06:34:36;100721.88;;;22.88;30.99
18569;BME280;14780;48.316;-1.050;2023-02-08T06:37:21;100723.31;;;22.90;31.06
18569;BME280;14780;48.316;-1.050;2023-02-08T06:40:06;100720.81;;;22.89;31.04
18569;BME280;14780;48.316;-1.050;2023-02-08T06:42:51;100725.84;;;22.92;30.98
18569;BME280;14780;48.316;-1.050;2023-02-08T06:45:36;100725.59;;;22.93;31.08
18569;BME280;14780;48.316;-1.050;2023-02-08T06:48:20;100720.13;;;22.93;31.04
18569;BME280;14780;48.316;-1.050;2023-02-08T06:51:05;100706.72;;;22.92;31.06
18569;BME280;14780;48.316;-1.050;2023-02-08T06:53:49;100707.16;;;22.89;31.02
18569;BME280;14780;48.316;-1.050;2023-02-08T06:56:35;100708.59;;;22.91;31.02
18569;BME280;14780;48.316;-1.050;2023-02-08T06:59:20;100708.38;;;22.93;31.04
18569;BME280;14780;48.316;-1.050;2023-02-08T07:02:09;100699.13;;;22.94;31.01
18569;BME280;14780;48.316;-1.050;2023-02-08T07:04:55;100693.06;;;22.92;31.12
18569;BME280;14780;48.316;-1.050;2023-02-08T07:07:40;100694.13;;;22.91;31.04
18569;BME280;14780;48.316;-1.050;2023-02-08T07:10:24;100699.56;;;22.91;31.14
18569;BME280;14780;48.316;-1.050;2023-02-08T07:13:09;100700.03;;;22.88;31.18
18569;BME280;14780;48.316;-1.050;2023-02-08T07:15:54;100699.44;;;22.86;31.13
18569;BME280;14780;48.316;-1.050;2023-02-08T07:18:38;100696.94;;;22.84;31.16
18569;BME280;14780;48.316;-1.050;2023-02-08T07:21:23;100699.88;;;22.83;31.21
18569;BME280;14780;48.316;-1.050;2023-02-08T07:24:07;100697.16;;;22.83;31.22
18569;BME280;14780;48.316;-1.050;2023-02-08T07:26:52;100695.72;;;22.80;31.16
18569;BME280;14780;48.316;-1.050;2023-02-08T07:29:37;100700.72;;;22.83;31.32
18569;BME280;14780;48.316;-1.050;2023-02-08T07:32:22;100699.44;;;22.86;31.39
18569;BME280;14780;48.316;-1.050;2023-02-08T07:35:07;100696.72;;;22.86;31.35
18569;BME280;14780;48.316;-1.050;2023-02-08T07:37:52;100694.81;;;22.86;31.35
18569;BME280;14780;48.316;-1.050;2023-02-08T07:40:37;100697.53;;;22.86;31.33
18569;BME280;14780;48.316;-1.050;2023-02-08T07:43:21;100696.34;;;22.82;31.42
18569;BME280;14780;48.316;-1.050;2023-02-08T07:46:08;100699.06;;;22.82;31.36
18569;BME280;14780;48.316;-1.050;2023-02-08T07:48:53;100687.53;;;22.80;31.37
18569;BME280;14780;48.316;-1.050;2023-02-08T07:51:38;100691.31;;;22.79;31.39
18569;BME280;14780;48.316;-1.050;2023-02-08T07:54:22;100685.84;;;22.79;31.47
18569;BME280;14780;48.316;-1.050;2023-02-08T07:57:08;100697.41;;;22.81;31.46
18569;BME280;14780;48.316;-1.050;2023-02-08T07:59:52;100690.50;;;22.79;31.49
18569;BME280;14780;48.316;-1.050;2023-02-08T08:02:37;100693.44;;;22.77;31.55
18569;BME280;14780;48.316;-1.050;2023-02-08T08:05:22;100695.34;;;22.77;31.57
18569;BME280;14780;48.316;-1.050;2023-02-08T08:08:07;100689.66;;;22.78;31.66
18569;BME280;14780;48.316;-1.050;2023-02-08T08:10:52;100687.75;;;22.79;31.63
18569;BME280;14780;48.316;-1.050;2023-02-08T08:13:37;100693.44;;;22.77;31.76
18569;BME280;14780;48.316;-1.050;2023-02-08T08:16:22;100677.53;;;22.74;31.72
18569;BME280;14780;48.316;-1.050;2023-02-08T08:19:06;100678.13;;;22.76;31.67
18569;BME280;14780;48.316;-1.050;2023-02-08T08:21:51;100685.94;;;22.73;31.73
18569;BME280;14780;48.316;-1.050;2023-02-08T08:24:36;100678.81;;;22.72;31.73
18569;BME280;14780;48.316;-1.050;2023-02-08T08:27:21;100681.53;;;22.72;31.79
18569;BME280;14780;48.316;-1.050;2023-02-08T08:30:08;100681.53;;;22.72;31.67
18569;BME280;14780;48.316;-1.050;2023-02-08T08:32:53;100686.41;;;22.70;31.69
18569;BME280;14780;48.316;-1.050;2023-02-08T08:35:38;100685.56;;;22.69;31.72
18569;BME280;14780;48.316;-1.050;2023-02-08T08:38:23;100693.75;;;22.69;31.71
18569;BME280;14780;48.316;-1.050;2023-02-08T08:41:10;100691.00;;;22.69;31.72
18569;BME280;14780;48.316;-1.050;2023-02-08T08:43:55;100689.56;;;22.67;31.77
18569;BME280;14780;48.316;-1.050;2023-02-08T08:46:40;100686.84;;;22.67;31.72
18569;BME280;14780;48.316;-1.050;2023-02-08T08:49:26;100690.47;;;22.61;31.83
18569;BME280;14780;48.316;-1.050;2023-02-08T08:52:12;100690.03;;;22.64;31.67
18569;BME280;14780;48.316;-1.050;2023-02-08T08:54:57;100687.31;;;22.64;31.64
18569;BME280;14780;48.316;-1.050;2023-02-08T08:57:41;100686.91;;;22.60;31.73
18569;BME280;14780;48.316;-1.050;2023-02-08T09:00:26;100685.84;;;22.61;31.68
18569;BME280;14780;48.316;-1.050;2023-02-08T09:03:11;100687.75;;;22.61;31.66
18569;BME280;14780;48.316;-1.050;2023-02-08T09:05:56;100689.41;;;22.62;31.66
18569;BME280;14780;48.316;-1.050;2023-02-08T09:08:41;100684.41;;;22.59;31.70
18569;BME280;14780;48.316;-1.050;2023-02-08T09:11:26;100686.91;;;22.60;31.62
18569;BME280;14780;48.316;-1.050;2023-02-08T09:14:11;100685.00;;;22.61;31.60
18569;BME280;14780;48.316;-1.050;2023-02-08T09:16:56;100690.72;;;22.59;31.63
18569;BME280;14780;48.316;-1.050;2023-02-08T09:19:40;100686.06;;;22.60;31.58
18569;BME280;14780;48.316;-1.050;2023-02-08T09:22:26;100683.56;;;22.58;31.57
18569;BME280;14780;48.316;-1.050;2023-02-08T09:25:10;100682.16;;;22.56;31.65
18569;BME280;14780;48.316;-1.050;2023-02-08T09:27:55;100684.63;;;22.57;31.58
18569;BME280;14780;48.316;-1.050;2023-02-08T09:30:40;100686.53;;;22.57;31.57
18569;BME280;14780;48.316;-1.050;2023-02-08T09:33:24;100684.03;;;22.55;31.51
18569;BME280;14780;48.316;-1.050;2023-02-08T09:36:09;100687.81;;;22.54;31.56
18569;BME280;14780;48.316;-1.050;2023-02-08T09:38:57;100690.31;;;22.56;31.49
18569;BME280;14780;48.316;-1.050;2023-02-08T09:42:17;100686.97;;;22.54;31.62
18569;BME280;14780;48.316;-1.050;2023-02-08T09:45:47;100689.69;;;22.54;31.74
18569;BME280;14780;48.316;-1.050;2023-02-08T09:48:36;100692.22;;;22.55;31.73
18569;BME280;14780;48.316;-1.050;2023-02-08T09:51:30;100689.25;;;22.57;31.86
18569;BME280;14780;48.316;-1.050;2023-02-08T09:54:27;100696.16;;;22.59;31.97
18569;BME280;14780;48.316;-1.050;2023-02-08T09:57:17;100696.97;;;22.60;31.95
18569;BME280;14780;48.316;-1.050;2023-02-08T10:00:30;100694.84;;;22.62;32.06
18569;BME280;14780;48.316;-1.050;2023-02-08T10:06:06;100688.38;;;22.63;32.03
18569;BME280;14780;48.316;-1.050;2023-02-08T10:08:53;100693.19;;;22.61;31.93
18569;BME280;14780;48.316;-1.050;2023-02-08T10:36:21;100680.63;;;22.60;31.80
18569;BME280;14780;48.316;-1.050;2023-02-08T10:39:15;100690.25;;;22.62;31.76
18569;BME280;14780;48.316;-1.050;2023-02-08T10:42:01;100691.16;;;22.56;31.89
18569;BME280;14780;48.316;-1.050;2023-02-08T10:45:01;100694.03;;;22.61;31.77
18569;BME280;14780;48.316;-1.050;2023-02-08T10:47:55;100700.78;;;22.59;31.79
18569;BME280;14780;48.316;-1.050;2023-02-08T10:50:43;100701.84;;;22.58;31.73
18569;BME280;14780;48.316;-1.050;2023-02-08T10:53:30;100703.50;;;22.59;31.74
18569;BME280;14780;48.316;-1.050;2023-02-08T10:56:34;100700.78;;;22.59;31.74
18569;BME280;14780;48.316;-1.050;2023-02-08T10:59:48;100700.19;;;22.57;31.69
18569;BME280;14780;48.316;-1.050;2023-02-08T11:02:39;100698.06;;;22.59;31.66
18569;BME280;14780;48.316;-1.050;2023-02-08T11:08:23;100701.38;;;22.61;31.68
18569;BME280;14780;48.316;-1.050;2023-02-08T11:11:10;100700.31;;;22.62;31.66
18569;BME280;14780;48.316;-1.050;2023-02-08T11:14:07;100699.50;;;22.61;31.62
18569;BME280;14780;48.316;-1.050;2023-02-08T11:16:55;100699.28;;;22.63;31.63
18569;BME280;14780;48.316;-1.050;2023-02-08T11:19:40;100701.75;;;22.64;31.68
18569;BME280;14780;48.316;-1.050;2023-02-08T11:22:30;100698.22;;;22.64;31.57
18569;BME280;14780;48.316;-1.050;2023-02-08T11:25:33;100693.19;;;22.61;31.63
18569;BME280;14780;48.316;-1.050;2023-02-08T11:28:37;100698.66;;;22.61;31.65
18569;BME280;14780;48.316;-1.050;2023-02-08T11:31:22;100704.75;;;22.63;31.84
18569;BME280;14780;48.316;-1.050;2023-02-08T11:34:09;100705.72;;;22.68;31.79
18569;BME280;14780;48.316;-1.050;2023-02-08T11:36:56;100698.97;;;22.71;31.89
18569;BME280;14780;48.316;-1.050;2023-02-08T11:39:44;100692.25;;;22.73;31.85
18569;BME280;14780;48.316;-1.050;2023-02-08T11:42:40;100695.34;;;22.77;31.85
18569;BME280;14780;48.316;-1.050;2023-02-08T11:45:35;100699.50;;;22.79;31.88
18569;BME280;14780;48.316;-1.050;2023-02-08T11:51:34;100685.19;;;22.84;31.95
18569;BME280;14780;48.316;-1.050;2023-02-08T11:54:33;100685.78;;;22.86;31.86
18569;BME280;14780;48.316;-1.050;2023-02-08T12:00:22;100669.53;;;22.91;31.85
18569;BME280;14780;48.316;-1.050;2023-02-08T12:03:30;100669.09;;;22.94;31.89
18569;BME280;14780;48.316;-1.050;2023-02-08T12:13:01;100676.50;;;23.05;31.81
18569;BME280;14780;48.316;-1.050;2023-02-08T12:22:43;100664.47;;;23.12;31.74
18569;BME280;14780;48.316;-1.050;2023-02-08T12:35:00;100645.44;;;23.24;31.61
18569;BME280;14780;48.316;-1.050;2023-02-08T12:44:10;100630.25;;;23.28;31.60
18569;BME280;14780;48.316;-1.050;2023-02-08T12:50:18;100627.66;;;23.33;31.57
18569;BME280;14780;48.316;-1.050;2023-02-08T12:53:36;100621.13;;;23.33;31.51
18569;BME280;14780;48.316;-1.050;2023-02-08T12:56:25;100612.09;;;23.33;31.48
18569;BME280;14780;48.316;-1.050;2023-02-08T12:59:42;100601.78;;;23.35;31.45
18569;BME280;14780;48.316;-1.050;2023-02-08T13:03:04;100597.97;;;23.36;31.43
18569;BME280;14780;48.316;-1.050;2023-02-08T13:05:52;100588.97;;;23.36;31.37
18569;BME280;14780;48.316;-1.050;2023-02-08T13:09:02;100591.59;;;23.42;31.34
18569;BME280;14780;48.316;-1.050;2023-02-08T13:12:13;100595.16;;;23.42;31.36
18569;BME280;14780;48.316;-1.050;2023-02-08T13:15:06;100590.06;;;23.46;31.30
18569;BME280;14780;48.316;-1.050;2023-02-08T13:17:54;100580.78;;;23.47;31.24
18569;BME280;14780;48.316;-1.050;2023-02-08T13:20:44;100586.84;;;23.49;31.18
18569;BME280;14780;48.316;-1.050;2023-02-08T13:23:56;100575.69;;;23.50;31.18
18569;BME280;14780;48.316;-1.050;2023-02-08T13:26:41;100575.69;;;23.50;31.10
18569;BME280;14780;48.316;-1.050;2023-02-08T13:29:27;100567.03;;;23.53;31.17
18569;BME280;14780;48.316;-1.050;2023-02-08T13:35:20;100564.41;;;23.58;31.09
18569;BME280;14780;48.316;-1.050;2023-02-08T13:38:26;100553.28;;;23.60;31.04
18569;BME280;14780;48.316;-1.050;2023-02-08T13:41:23;100545.44;;;23.63;31.01
18569;BME280;14780;48.316;-1.050;2023-02-08T13:44:19;100535.91;;;23.66;30.99
18569;BME280;14780;48.316;-1.050;2023-02-08T13:47:06;100536.75;;;23.66;30.97
18569;BME280;14780;48.316;-1.050;2023-02-08T13:50:36;100535.22;;;23.70;30.98
18569;BME280;14780;48.316;-1.050;2023-02-08T13:53:11;100532.00;;;23.73;31.07
18569;BME280;14780;48.316;-1.050;2023-02-08T13:55:59;100535.31;;;23.75;30.95
18569;BME280;14780;48.316;-1.050;2023-02-08T14:01:35;100532.94;;;23.79;30.94
18569;BME280;14780;48.316;-1.050;2023-02-08T14:04:31;100524.50;;;23.80;30.73
18569;BME280;14780;48.316;-1.050;2023-02-08T14:07:26;100524.28;;;23.82;30.85
18569;BME280;14780;48.316;-1.050;2023-02-08T14:10:38;100519.91;;;23.81;30.64
18569;BME280;14780;48.316;-1.050;2023-02-08T14:13:31;100508.69;;;23.82;30.72
18569;BME280;14780;48.316;-1.050;2023-02-08T14:16:40;100507.63;;;23.83;30.65
18569;BME280;14780;48.316;-1.050;2023-02-08T14:19:25;100492.31;;;23.82;30.67
18569;BME280;14780;48.316;-1.050;2023-02-08T14:25:26;100491.97;;;23.90;30.71
18569;BME280;14780;48.316;-1.050;2023-02-08T14:28:42;100492.81;;;23.91;30.51
18569;BME280;14780;48.316;-1.050;2023-02-08T14:31:42;100488.50;;;23.95;30.64
18569;BME280;14780;48.316;-1.050;2023-02-08T14:34:33;100475.69;;;23.95;30.63
18569;BME280;14780;48.316;-1.050;2023-02-08T14:49:21;100473.06;;;24.00;30.43
18569;BME280;14780;48.316;-1.050;2023-02-08T14:52:14;100466.75;;;24.00;30.54
18569;BME280;14780;48.316;-1.050;2023-02-08T14:55:14;100468.69;;;23.99;30.37
18569;BME280;14780;48.316;-1.050;2023-02-08T14:58:00;100462.94;;;24.01;30.51
18569;BME280;14780;48.316;-1.050;2023-02-08T15:00:46;100463.81;;;24.01;30.45
18569;BME280;14780;48.316;-1.050;2023-02-08T15:03:35;100458.34;;;24.01;30.46
18569;BME280;14780;48.316;-1.050;2023-02-08T15:09:24;100445.25;;;24.03;30.44
18569;BME280;14780;48.316;-1.050;2023-02-08T15:12:31;100450.13;;;24.01;30.33
18569;BME280;14780;48.316;-1.050;2023-02-08T15:15:30;100456.41;;;24.02;30.36
18569;BME280;14780;48.316;-1.050;2023-02-08T15:18:22;100453.69;;;24.02;30.33
18569;BME280;14780;48.316;-1.050;2023-02-08T15:21:16;100453.69;;;24.02;30.42
18569;BME280;14780;48.316;-1.050;2023-02-08T15:24:25;100447.03;;;23.98;30.34
18569;BME280;14780;48.316;-1.050;2023-02-08T15:27:21;100454.31;;;23.92;29.98
18569;BME280;14780;48.316;-1.050;2023-02-08T15:30:20;100444.34;;;23.86;29.96
18569;BME280;14780;48.316;-1.050;2023-02-08T15:33:13;100447.06;;;23.86;30.00
18569;BME280;14780;48.316;-1.050;2023-02-08T15:36:02;100443.47;;;23.86;29.90
18569;BME280;14780;48.316;-1.050;2023-02-08T15:38:49;100442.63;;;23.85;29.84
18569;BME280;14780;48.316;-1.050;2023-02-08T15:41:34;100444.75;;;23.83;29.89
18569;BME280;14780;48.316;-1.050;2023-02-08T15:44:32;100439.91;;;23.85;29.84
18569;BME280;14780;48.316;-1.050;2023-02-08T15:47:32;100438.25;;;23.84;29.85
18569;BME280;14780;48.316;-1.050;2023-02-08T15:50:21;100446.00;;;23.87;29.91
18569;BME280;14780;48.316;-1.050;2023-02-08T15:53:09;100438.88;;;23.86;29.83
18569;BME280;14780;48.316;-1.050;2023-02-08T15:56:01;100447.66;;;23.88;29.86
18569;BME280;14780;48.316;-1.050;2023-02-08T15:58:54;100436.72;;;23.88;29.86
18569;BME280;14780;48.316;-1.050;2023-02-08T16:01:46;100436.72;;;23.88;29.86
18569;BME280;14780;48.316;-1.050;2023-02-08T16:04:31;100447.41;;;23.90;29.87
18569;BME280;14780;48.316;-1.050;2023-02-08T16:07:32;100446.34;;;23.91;29.74
18569;BME280;14780;48.316;-1.050;2023-02-08T16:13:32;100450.97;;;23.90;29.80
18569;BME280;14780;48.316;-1.050;2023-02-08T16:16:21;100449.31;;;23.89;29.79
18569;BME280;14780;48.316;-1.050;2023-02-08T16:19:26;100450.97;;;23.90;29.76
18569;BME280;14780;48.316;-1.050;2023-02-08T16:22:21;100442.19;;;23.88;29.89
18569;BME280;14780;48.316;-1.050;2023-02-08T16:25:23;100444.91;;;23.88;29.84
18569;BME280;14780;48.316;-1.050;2023-02-08T16:28:26;100438.88;;;23.86;29.88
18569;BME280;14780;48.316;-1.050;2023-02-08T16:31:11;100437.19;;;23.85;29.77
18569;BME280;14780;48.316;-1.050;2023-02-08T16:34:11;100446.91;;;23.81;29.77
18569;BME280;14780;48.316;-1.050;2023-02-08T16:36:57;100450.22;;;23.83;30.02
18569;BME280;14780;48.316;-1.050;2023-02-08T16:39:49;100449.19;;;23.84;30.01
18569;BME280;14780;48.316;-1.050;2023-02-08T16:42:38;100444.75;;;23.83;30.05